createdAt,value
2023-04-13T00:05:22.088Z,15.9
2023-04-13T00:11:14.712Z,15.9
2023-04-13T00:17:07.020Z,15.8
2023-04-13T00:22:58.111Z,15.9
2023-04-13T00:28:49.541Z,16
2023-04-13T00:34:41.900Z,16.1
2023-04-13T00:40:32.449Z,16.2
2023-04-13T00:46:24.290Z,16.1
2023-04-13T00:52:16.276Z,16.1
2023-04-13T00:58:07.740Z,16
2023-04-13T01:04:00.586Z,15.9
2023-04-13T01:09:52.755Z,15.8
2023-04-13T01:15:27.432Z,15.8
2023-04-13T01:22:14.189Z,15.8
2023-04-13T01:28:05.930Z,15.7
2023-04-13T01:33:57.683Z,15.8
2023-04-13T01:39:34.094Z,15.9
2023-04-13T01:45:25.499Z,16
2023-04-13T01:51:16.920Z,15.9
2023-04-13T01:56:52.917Z,15.9
2023-04-13T02:02:45.659Z,15.8
2023-04-13T02:08:38.615Z,15.8
2023-04-13T02:14:29.460Z,15.8
2023-04-13T02:20:21.613Z,15.7
2023-04-13T02:26:12.853Z,15.8
2023-04-13T02:32:04.362Z,15.9
2023-04-13T02:37:56.763Z,15.9
2023-04-13T02:43:47.312Z,15.9
2023-04-13T02:49:38.920Z,15.8
2023-04-13T02:55:30.390Z,15.8
2023-04-13T03:01:20.948Z,15.8
2023-04-13T03:07:14.541Z,15.7
2023-04-13T03:13:07.228Z,15.6
2023-04-13T03:18:43.447Z,15.7
2023-04-13T03:24:34.907Z,15.8
2023-04-13T03:30:27.448Z,15.9
2023-04-13T03:36:19.178Z,15.9
2023-04-13T03:42:11.626Z,15.8
2023-04-13T03:47:48.814Z,15.8
2023-04-13T03:53:40.105Z,15.7
2023-04-13T03:59:31.999Z,15.6
2023-04-13T04:05:25.636Z,15.6
2023-04-13T04:11:16.673Z,15.6
2023-04-13T04:17:11.633Z,15.8
2023-04-13T04:23:06.528Z,15.9
2023-04-13T04:28:57.580Z,15.8
2023-04-13T04:34:49.428Z,15.8
2023-04-13T04:40:42.377Z,15.7
2023-04-13T04:46:18.793Z,15.6
2023-04-13T04:51:54.702Z,15.6
2023-04-13T04:57:46.433Z,15.5
2023-04-13T05:03:38.740Z,15.5
2023-04-13T05:09:15.440Z,15.6
2023-04-13T05:15:07.568Z,15.7
2023-04-13T05:21:01.386Z,15.8
2023-04-13T05:26:53.153Z,15.8
2023-04-13T05:32:47.933Z,15.8
2023-04-13T05:38:38.201Z,15.7
2023-04-13T05:44:30.775Z,15.6
2023-04-13T05:50:23.609Z,15.5
2023-04-13T05:56:14.036Z,15.5
2023-04-13T06:02:08.425Z,15.4
2023-04-13T06:08:02.684Z,15.4
2023-04-13T06:13:54.096Z,15.6
2023-04-13T06:19:47.131Z,15.8
2023-04-13T06:25:39.538Z,15.8
2023-04-13T06:31:31.409Z,15.7
2023-04-13T06:37:23.556Z,15.6
2023-04-13T06:43:28.960Z,15.6
2023-04-13T06:49:05.355Z,15.6
2023-04-13T06:54:56.653Z,15.8
2023-04-13T07:01:02.380Z,15.8
2023-04-13T07:06:58.285Z,15.8
2023-04-13T07:12:49.631Z,15.7
2023-04-13T07:18:42.463Z,15.7
2023-04-13T07:24:17.638Z,15.6
2023-04-13T07:30:08.815Z,15.6
2023-04-13T07:36:05.587Z,15.7
2023-04-13T07:42:00.068Z,15.8
2023-04-13T07:47:51.591Z,15.8
2023-04-13T07:53:43.547Z,15.9
2023-04-13T07:59:34.861Z,15.8
2023-04-13T08:05:28.139Z,15.8
2023-04-13T08:11:23.234Z,15.7
2023-04-13T08:17:00.863Z,15.6
2023-04-13T08:22:53.742Z,15.8
2023-04-13T08:28:49.161Z,15.9
2023-04-13T08:34:40.940Z,16.1
2023-04-13T08:40:32.947Z,15.9
2023-04-13T08:46:26.524Z,15.9
2023-04-13T08:52:27.240Z,15.8
2023-04-13T08:58:10.479Z,15.8
2023-04-13T09:04:19.254Z,15.8
2023-04-13T09:10:10.983Z,16
2023-04-13T09:15:46.653Z,16.1
2023-04-13T09:21:39.074Z,16.1
2023-04-13T09:35:35.288Z,15.9
2023-04-13T09:40:49.484Z,15.9
2023-04-13T09:46:10.161Z,15.8
2023-04-13T09:51:47.319Z,15.8
2023-04-13T09:57:39.859Z,15.8
2023-04-13T10:03:16.384Z,15.7
2023-04-13T10:09:05.422Z,15.7
2023-04-13T10:15:04.125Z,15.6
2023-04-13T10:21:00.336Z,15.6
2023-04-13T10:27:08.856Z,15.5
2023-04-13T10:32:46.515Z,15.4
2023-04-13T10:38:44.634Z,15.4
2023-04-13T10:44:38.818Z,15.4
2023-04-13T10:50:00.848Z,15.3
2023-04-13T10:55:39.822Z,15.3
2023-04-13T11:01:49.037Z,15.2
2023-04-13T11:07:25.014Z,15.2
2023-04-13T11:13:10.948Z,15.1
2023-04-13T11:18:47.320Z,15.1
2023-04-13T11:24:27.968Z,15.1
2023-04-13T11:29:48.257Z,15.1
2023-04-13T11:35:23.983Z,15
2023-04-13T11:41:12.415Z,15
2023-04-13T11:47:06.642Z,14.9
2023-04-13T11:52:59.712Z,14.9
2023-04-13T11:58:56.568Z,14.9
2023-04-13T12:05:44.334Z,14.9
2023-04-13T12:12:46.100Z,14.9
2023-04-13T12:21:15.136Z,14.9
2023-04-13T12:27:35.587Z,14.9
2023-04-13T12:33:29.189Z,14.8
2023-04-13T12:39:23.505Z,14.8
2023-04-13T12:45:14.215Z,14.8
2023-04-13T12:51:06.638Z,14.8
2023-04-13T12:56:58.843Z,14.8
2023-04-13T13:02:56.508Z,14.8
2023-04-13T13:08:53.942Z,14.8
2023-04-13T13:14:54.728Z,14.8
2023-04-13T13:21:01.750Z,14.8
2023-04-13T13:28:13.724Z,14.8
2023-04-13T13:34:06.799Z,14.8
2023-04-13T13:39:43.710Z,14.8
2023-04-13T13:45:36.495Z,14.8
2023-04-13T13:51:13.749Z,14.8
2023-04-13T13:57:22.223Z,14.8
2023-04-13T14:02:58.266Z,14.8
2023-04-13T14:08:51.096Z,14.8
2023-04-13T14:14:38.216Z,14.8
2023-04-13T14:20:40.589Z,14.8
2023-04-13T14:26:32.632Z,14.8
2023-04-13T14:32:24.927Z,14.8
2023-04-13T14:38:17.290Z,14.8
2023-04-13T14:44:09.611Z,14.8
2023-04-13T14:50:01.628Z,14.8
2023-04-13T14:55:53.562Z,14.8
2023-04-13T15:01:46.683Z,14.9
2023-04-13T15:07:43.305Z,14.9
2023-04-13T15:13:36.161Z,14.9
2023-04-13T15:19:29.418Z,14.9
2023-04-13T15:25:21.363Z,14.9
2023-04-13T15:31:13.394Z,14.9
2023-04-13T15:37:06.813Z,14.9
2023-04-13T15:42:58.123Z,14.9
2023-04-13T15:48:50.143Z,14.9
2023-04-13T15:54:42.401Z,14.9
2023-04-13T16:00:34.065Z,14.9
2023-04-13T16:06:27.268Z,14.9
2023-04-13T16:12:22.629Z,14.9
2023-04-13T16:18:28.942Z,14.9
2023-04-13T16:24:21.387Z,14.9
2023-04-13T16:30:13.515Z,14.9
2023-04-13T16:36:21.407Z,14.9
2023-04-13T16:42:14.239Z,14.9
2023-04-13T16:48:07.235Z,14.9
2023-04-13T16:53:44.057Z,14.9
2023-04-13T16:59:36.448Z,14.9
2023-04-13T17:05:47.915Z,14.9
2023-04-13T17:11:39.379Z,14.9
2023-04-13T17:17:00.409Z,14.9
2023-04-13T17:22:53.639Z,14.9
2023-04-13T17:28:45.432Z,14.9
2023-04-13T17:34:40.908Z,14.9
2023-04-13T17:40:33.585Z,14.9
2023-04-13T17:46:26.199Z,14.9
2023-04-13T17:52:18.330Z,14.9
2023-04-13T17:58:12.421Z,14.9
2023-04-13T18:04:07.667Z,14.9
2023-04-13T18:09:44.241Z,14.9
2023-04-13T18:15:23.179Z,14.9
2023-04-13T18:20:44.448Z,14.9
2023-04-13T18:26:06.893Z,14.9
2023-04-13T18:31:59.551Z,15
2023-04-13T18:37:37.872Z,14.9
2023-04-13T18:43:13.940Z,14.9
2023-04-13T18:48:35.507Z,14.9
2023-04-13T18:54:27.454Z,14.9
2023-04-13T19:00:03.696Z,14.9
2023-04-13T19:05:46.113Z,14.9
2023-04-13T19:11:38.517Z,14.9
2023-04-13T19:17:30.214Z,14.9
2023-04-13T19:23:22.857Z,14.9
2023-04-13T19:29:17.001Z,14.9
2023-04-13T19:34:53.362Z,14.9
2023-04-13T19:40:47.384Z,14.9
2023-04-13T19:46:40.517Z,14.9
2023-04-13T19:52:32.468Z,14.9
2023-04-13T19:58:24.848Z,15
2023-04-13T20:04:19.137Z,15.2
2023-04-13T20:10:10.678Z,15.7
2023-04-13T20:16:03.252Z,16.1
2023-04-13T20:21:56.361Z,16.3
2023-04-13T20:27:50.446Z,16.4
2023-04-13T20:33:43.238Z,16.4
2023-04-13T20:39:19.992Z,16.5
2023-04-13T20:45:12.148Z,16.6
2023-04-13T20:51:50.777Z,16.8
2023-04-13T20:57:42.592Z,16.7
2023-04-13T21:03:35.374Z,16.6
2023-04-13T21:09:27.965Z,16.5
2023-04-13T21:15:20.349Z,16.6
2023-04-13T21:21:15.889Z,16.8
2023-04-13T21:27:07.994Z,16.8
2023-04-13T21:32:43.936Z,16.7
2023-04-13T21:38:28.560Z,16.6
2023-04-13T21:44:28.602Z,16.5
2023-04-13T21:50:19.967Z,16.4
2023-04-13T21:56:14.208Z,16.4
2023-04-13T22:02:07.023Z,16.4
2023-04-13T22:08:14.511Z,16.6
2023-04-13T22:14:05.572Z,16.7
2023-04-13T22:20:00.158Z,16.6
2023-04-13T22:25:35.977Z,16.6
2023-04-13T22:31:28.228Z,16.6
2023-04-13T22:37:20.869Z,16.5
2023-04-13T22:43:12.492Z,16.4
2023-04-13T22:49:03.443Z,16.4
2023-04-13T22:54:55.235Z,16.5
2023-04-13T23:00:31.688Z,16.6
2023-04-13T23:06:28.454Z,16.7
2023-04-13T23:12:05.350Z,16.6
2023-04-13T23:17:42.300Z,16.6
2023-04-13T23:23:34.220Z,16.5
2023-04-13T23:29:26.665Z,16.4
2023-04-13T23:35:18.333Z,16.4
2023-04-13T23:41:09.534Z,16.4
2023-04-13T23:47:01.576Z,16.5
2023-04-13T23:52:53.360Z,16.7
2023-04-13T23:58:44.562Z,16.6
